Time;durP1;ratioP1;P1;durP2;ratioP2;P2;SDS_P1;SDS_P2;PMS_P1;PMS_P2;Temp;Humidity;BMP_temperature;BMP_pressure;BME280_temperature;BME280_humidity;BME280_pressure;Samples;Min_cycle;Max_cycle;Signal;HPM_P1;HPM_P2
2022/03/30 00:00:56;;;;;;;8.05;3.47;;;;;;;;;;5114297;27;20537;-75
2022/03/30 00:03:22;;;;;;;9.25;3.63;;;;;;;;;;5115492;27;20134;-75
2022/03/30 00:05:48;;;;;;;6.45;2.70;;;;;;;;;;5132732;27;20184;-75
2022/03/30 00:08:14;;;;;;;7.13;2.90;;;;;;;;;;5132400;27;20046;-75
2022/03/30 00:10:41;;;;;;;12.45;3.38;;;;;;;;;;5130021;27;20043;-75
2022/03/30 00:13:08;;;;;;;10.38;3.25;;;;;;;;;;5134713;27;20063;-75
2022/03/30 00:15:34;;;;;;;6.43;3.03;;;;;;;;;;5132119;27;20118;-75
2022/03/30 00:18:00;;;;;;;7.93;3.47;;;;;;;;;;5134906;27;20064;-75
2022/03/30 00:20:26;;;;;;;7.63;2.88;;;;;;;;;;5132940;27;20081;-75
2022/03/30 00:22:53;;;;;;;8.13;3.30;;;;;;;;;;5127509;27;20067;-76
2022/03/30 00:25:20;;;;;;;7.45;3.03;;;;;;;;;;5112434;27;20036;-75
2022/03/30 00:27:46;;;;;;;9.95;2.75;;;;;;;;;;5132921;27;20039;-76
2022/03/30 00:30:13;;;;;;;11.55;3.65;;;;;;;;;;5129304;27;20039;-76
2022/03/30 00:32:40;;;;;;;8.77;3.28;;;;;;;;;;5113600;27;20122;-76
2022/03/30 00:35:07;;;;;;;6.22;2.70;;;;;;;;;;5131393;27;20156;-75
2022/03/30 00:37:34;;;;;;;5.60;2.30;;;;;;;;;;5129962;27;20036;-75
2022/03/30 00:40:00;;;;;;;9.07;2.55;;;;;;;;;;5110246;27;20042;-76
2022/03/30 00:42:26;;;;;;;7.25;2.70;;;;;;;;;;5131212;27;20043;-76
2022/03/30 00:44:53;;;;;;;14.85;2.88;;;;;;;;;;5129021;27;20054;-75
2022/03/30 00:47:22;;;;;;;4.55;2.72;;;;;;;;;;5131532;27;20043;-76
2022/03/30 00:49:48;;;;;;;11.88;3.30;;;;;;;;;;5132448;27;20047;-76
2022/03/30 00:52:14;;;;;;;8.75;2.60;;;;;;;;;;5137097;27;21265;-75
2022/03/30 00:54:45;;;;;;;7.13;2.97;;;;;;;;;;5115466;27;20035;-76
2022/03/30 00:57:11;;;;;;;10.70;3.22;;;;;;;;;;5133593;27;20540;-76
2022/03/30 00:59:38;;;;;;;8.35;3.17;;;;;;;;;;5124894;27;20532;-76
2022/03/30 01:02:04;;;;;;;11.02;3.38;;;;;;;;;;5129708;27;20047;-76
2022/03/30 01:04:34;;;;;;;10.00;2.88;;;;;;;;;;5123635;27;20070;-76
2022/03/30 01:07:01;;;;;;;9.38;2.67;;;;;;;;;;5129660;27;20404;-77
2022/03/30 01:09:27;;;;;;;5.72;2.33;;;;;;;;;;5130859;27;20066;-77
2022/03/30 01:11:54;;;;;;;4.35;2.42;;;;;;;;;;5134910;27;20036;-79
2022/03/30 01:14:21;;;;;;;9.80;3.65;;;;;;;;;;5112944;27;20104;-77
2022/03/30 01:16:47;;;;;;;7.47;3.55;;;;;;;;;;5131134;27;20181;-77
2022/03/30 01:19:14;;;;;;;8.10;2.95;;;;;;;;;;5132581;27;20040;-76
2022/03/30 01:21:41;;;;;;;7.55;2.78;;;;;;;;;;5114970;27;20039;-77
2022/03/30 01:24:08;;;;;;;9.88;2.88;;;;;;;;;;5130465;27;20948;-77
2022/03/30 01:26:34;;;;;;;6.97;2.15;;;;;;;;;;5114130;27;20036;-77
2022/03/30 01:29:01;;;;;;;8.32;3.33;;;;;;;;;;5128240;27;20070;-77
2022/03/30 01:34:12;;;;;;;8.98;2.95;;;;;;;;;;5128396;27;20085;-77
2022/03/30 01:36:38;;;;;;;8.20;2.22;;;;;;;;;;5130976;27;20134;-77
2022/03/30 01:39:05;;;;;;;8.38;3.13;;;;;;;;;;5130323;27;20454;-77
2022/03/30 01:41:32;;;;;;;12.65;2.55;;;;;;;;;;5127690;27;20122;-77
2022/03/30 01:43:58;;;;;;;4.07;1.95;;;;;;;;;;5132431;27;20039;-77
2022/03/30 01:46:25;;;;;;;10.77;2.97;;;;;;;;;;5115587;27;20066;-77
2022/03/30 01:48:51;;;;;;;7.90;3.08;;;;;;;;;;5132003;27;20149;-77
2022/03/30 01:51:17;;;;;;;9.15;2.70;;;;;;;;;;5131906;27;20122;-77
2022/03/30 01:53:43;;;;;;;6.10;2.40;;;;;;;;;;5120142;27;20092;-77
2022/03/30 01:56:09;;;;;;;6.30;2.75;;;;;;;;;;5127515;27;20122;-77
2022/03/30 01:58:35;;;;;;;6.82;2.22;;;;;;;;;;5132399;27;20040;-77
2022/03/30 02:01:03;;;;;;;10.18;2.50;;;;;;;;;;5131118;27;20099;-76
2022/03/30 02:03:29;;;;;;;7.38;2.25;;;;;;;;;;5114346;27;20050;-76
2022/03/30 02:05:55;;;;;;;7.05;2.42;;;;;;;;;;5134670;27;20509;-76
2022/03/30 02:08:22;;;;;;;8.90;2.97;;;;;;;;;;5117176;27;20103;-77
2022/03/30 02:10:48;;;;;;;7.15;2.55;;;;;;;;;;5137417;27;20031;-76
2022/03/30 02:13:14;;;;;;;6.18;2.95;;;;;;;;;;5135516;27;20035;-77
2022/03/30 02:15:40;;;;;;;9.57;3.28;;;;;;;;;;5131003;27;20085;-76
2022/03/30 02:18:06;;;;;;;10.20;3.50;;;;;;;;;;5115824;27;20189;-77
2022/03/30 02:20:32;;;;;;;5.25;2.60;;;;;;;;;;5118415;27;20734;-77
2022/03/30 02:22:58;;;;;;;9.43;3.05;;;;;;;;;;5135984;27;20082;-76
2022/03/30 02:25:26;;;;;;;8.18;2.80;;;;;;;;;;5134194;27;20051;-76
2022/03/30 02:27:52;;;;;;;5.93;2.33;;;;;;;;;;5131472;27;20119;-76
2022/03/30 02:30:18;;;;;;;12.40;2.55;;;;;;;;;;5133309;27;20532;-76
2022/03/30 02:32:44;;;;;;;10.50;2.55;;;;;;;;;;5114500;27;20039;-76
2022/03/30 02:35:12;;;;;;;9.15;3.22;;;;;;;;;;5112692;27;21014;-76
2022/03/30 02:37:38;;;;;;;7.82;3.10;;;;;;;;;;5132735;27;20055;-76
2022/03/30 02:40:04;;;;;;;11.38;3.17;;;;;;;;;;5133931;27;20535;-76
2022/03/30 02:42:31;;;;;;;7.03;2.95;;;;;;;;;;5114386;27;20036;-76
2022/03/30 02:44:57;;;;;;;6.00;3.45;;;;;;;;;;5115658;27;20044;-76
2022/03/30 02:48:17;;;;;;;6.07;2.60;;;;;;;;;;5129668;27;20149;-76
2022/03/30 02:50:09;;;;;;;12.73;4.43;;;;;;;;;;5131857;27;20043;-76
2022/03/30 02:52:35;;;;;;;12.18;3.35;;;;;;;;;;5132102;27;20043;-76
2022/03/30 02:55:01;;;;;;;18.05;3.97;;;;;;;;;;5134757;27;20505;-76
2022/03/30 02:57:27;;;;;;;8.75;3.45;;;;;;;;;;5118705;27;20096;-76
2022/03/30 02:59:53;;;;;;;14.10;4.03;;;;;;;;;;5128896;27;20039;-76
2022/03/30 03:02:19;;;;;;;6.38;3.78;;;;;;;;;;5111768;27;20516;-76
2022/03/30 03:04:46;;;;;;;11.93;4.57;;;;;;;;;;5132390;27;20089;-76
2022/03/30 03:07:14;;;;;;;10.35;3.90;;;;;;;;;;5129685;27;20047;-76
2022/03/30 03:09:40;;;;;;;6.10;3.28;;;;;;;;;;5133639;27;20031;-76
2022/03/30 03:12:06;;;;;;;7.05;3.42;;;;;;;;;;5116341;27;20492;-76
2022/03/30 03:14:33;;;;;;;7.72;3.13;;;;;;;;;;5132822;27;20040;-76
2022/03/30 03:16:59;;;;;;;8.68;3.92;;;;;;;;;;5116747;27;20558;-76
2022/03/30 03:19:25;;;;;;;10.45;4.28;;;;;;;;;;5133721;27;20039;-76
2022/03/30 03:21:51;;;;;;;6.60;3.45;;;;;;;;;;5111022;27;20039;-76
2022/03/30 03:24:17;;;;;;;7.07;3.50;;;;;;;;;;5115994;27;20043;-76
2022/03/30 03:26:43;;;;;;;10.30;3.70;;;;;;;;;;5114221;27;20039;-77
2022/03/30 03:29:09;;;;;;;9.55;3.50;;;;;;;;;;5110735;27;20078;-76
2022/03/30 03:31:35;;;;;;;5.88;3.20;;;;;;;;;;5132125;27;20087;-76
2022/03/30 03:34:01;;;;;;;4.82;2.85;;;;;;;;;;5112984;27;20050;-76
2022/03/30 03:36:28;;;;;;;8.90;4.30;;;;;;;;;;5134758;27;20413;-76
2022/03/30 03:38:54;;;;;;;10.27;4.47;;;;;;;;;;5132086;27;20501;-76
2022/03/30 03:41:20;;;;;;;18.67;3.40;;;;;;;;;;5115913;27;20046;-76
2022/03/30 03:43:46;;;;;;;9.13;3.17;;;;;;;;;;5138740;27;20152;-76
2022/03/30 03:46:12;;;;;;;11.38;4.30;;;;;;;;;;5112933;27;20064;-76
2022/03/30 03:48:38;;;;;;;9.48;3.25;;;;;;;;;;5135198;27;20078;-76
2022/03/30 03:51:04;;;;;;;12.13;4.10;;;;;;;;;;5135566;27;20718;-76
2022/03/30 03:53:31;;;;;;;4.85;2.72;;;;;;;;;;5114590;27;20047;-76
2022/03/30 03:55:57;;;;;;;10.63;3.25;;;;;;;;;;5114910;27;20043;-76
2022/03/30 03:58:23;;;;;;;7.25;3.38;;;;;;;;;;5110287;27;20093;-76
2022/03/30 04:00:49;;;;;;;10.63;3.95;;;;;;;;;;5117349;27;20551;-76
2022/03/30 04:03:15;;;;;;;11.55;3.70;;;;;;;;;;5130631;27;20050;-76
2022/03/30 04:05:41;;;;;;;9.00;3.42;;;;;;;;;;5131222;27;20043;-77
2022/03/30 04:08:08;;;;;;;6.60;3.47;;;;;;;;;;5130773;27;20076;-76
2022/03/30 04:10:34;;;;;;;5.97;3.05;;;;;;;;;;5132689;27;20039;-76
2022/03/30 04:13:00;;;;;;;5.18;3.17;;;;;;;;;;5111026;27;20063;-76
2022/03/30 04:15:26;;;;;;;5.25;3.35;;;;;;;;;;5129210;27;20048;-77
2022/03/30 04:17:54;;;;;;;10.77;3.30;;;;;;;;;;5112203;27;20146;-76
2022/03/30 04:20:20;;;;;;;8.30;3.33;;;;;;;;;;5131631;27;20041;-76
2022/03/30 04:22:47;;;;;;;11.23;3.40;;;;;;;;;;5134400;27;20150;-76
2022/03/30 04:25:13;;;;;;;9.82;2.95;;;;;;;;;;5130128;27;20524;-76
2022/03/30 04:27:47;;;;;;;10.73;3.65;;;;;;;;;;5129931;27;20564;-76
2022/03/30 04:30:14;;;;;;;7.35;2.95;;;;;;;;;;5129311;27;20043;-76
2022/03/30 04:32:40;;;;;;;6.53;3.03;;;;;;;;;;5112854;27;20039;-76
2022/03/30 04:35:06;;;;;;;6.40;2.83;;;;;;;;;;5134387;27;20532;-76
2022/03/30 04:37:32;;;;;;;7.72;3.45;;;;;;;;;;5112675;27;20074;-76
2022/03/30 04:39:58;;;;;;;9.20;3.92;;;;;;;;;;5132109;27;20051;-76
2022/03/30 04:42:24;;;;;;;13.20;4.03;;;;;;;;;;5133007;27;20051;-76
2022/03/30 04:44:50;;;;;;;7.95;3.70;;;;;;;;;;5128811;27;20889;-76
2022/03/30 04:47:17;;;;;;;6.80;3.75;;;;;;;;;;5129924;27;20039;-76
2022/03/30 04:49:43;;;;;;;9.38;3.03;;;;;;;;;;5129795;27;20627;-76
2022/03/30 04:52:09;;;;;;;13.45;3.67;;;;;;;;;;5133048;27;20086;-76
2022/03/30 04:54:36;;;;;;;13.10;3.75;;;;;;;;;;5124562;27;20051;-77
2022/03/30 04:57:02;;;;;;;12.70;6.10;;;;;;;;;;5112635;27;22297;-77
2022/03/30 04:59:28;;;;;;;9.85;4.18;;;;;;;;;;5114368;27;20309;-77
2022/03/30 05:01:54;;;;;;;8.90;3.22;;;;;;;;;;5131188;27;20047;-76
2022/03/30 05:04:20;;;;;;;6.70;3.80;;;;;;;;;;5128416;27;20551;-76
2022/03/30 05:06:46;;;;;;;11.25;5.00;;;;;;;;;;5130251;27;20039;-76
2022/03/30 05:09:12;;;;;;;10.32;3.90;;;;;;;;;;5131584;27;20039;-76
2022/03/30 05:11:41;;;;;;;11.93;3.20;;;;;;;;;;5133320;27;20069;-77
2022/03/30 05:14:08;;;;;;;9.73;4.22;;;;;;;;;;5127642;27;20047;-76
2022/03/30 05:16:34;;;;;;;5.82;3.08;;;;;;;;;;5110070;27;20180;-77
2022/03/30 05:19:01;;;;;;;12.52;4.22;;;;;;;;;;5131700;27;20070;-74
2022/03/30 05:21:27;;;;;;;8.18;3.45;;;;;;;;;;5129670;27;20091;-75
2022/03/30 05:23:53;;;;;;;9.15;3.17;;;;;;;;;;5109126;27;20066;-77
2022/03/30 05:26:28;;;;;;;9.25;3.33;;;;;;;;;;5127960;27;20038;-83
2022/03/30 05:28:55;;;;;;;14.80;3.65;;;;;;;;;;5106833;27;20043;-74
2022/03/30 05:31:22;;;;;;;14.18;3.20;;;;;;;;;;5109903;27;20278;-80
2022/03/30 05:33:48;;;;;;;7.72;3.42;;;;;;;;;;5113584;27;20213;-83
2022/03/30 05:36:14;;;;;;;13.93;4.40;;;;;;;;;;5128032;27;20174;-75
2022/03/30 05:38:40;;;;;;;8.60;3.45;;;;;;;;;;5132095;27;20074;-75
2022/03/30 05:41:06;;;;;;;8.80;3.08;;;;;;;;;;5128038;27;20039;-75
2022/03/30 05:43:32;;;;;;;9.98;3.50;;;;;;;;;;5130333;27;20047;-75
2022/03/30 05:45:59;;;;;;;6.13;3.30;;;;;;;;;;5112141;27;20127;-75
2022/03/30 05:48:26;;;;;;;9.27;4.00;;;;;;;;;;5107591;27;20092;-75
2022/03/30 05:50:53;;;;;;;10.60;3.65;;;;;;;;;;5113236;27;20750;-74
2022/03/30 05:53:19;;;;;;;12.68;4.53;;;;;;;;;;5132897;27;20517;-75
2022/03/30 05:55:45;;;;;;;7.28;4.57;;;;;;;;;;5128071;27;20077;-76
2022/03/30 05:58:12;;;;;;;12.20;3.80;;;;;;;;;;5114480;27;20047;-74
2022/03/30 06:00:38;;;;;;;7.75;5.13;;;;;;;;;;5131332;27;20532;-75
2022/03/30 06:03:04;;;;;;;13.80;4.50;;;;;;;;;;5131011;27;20122;-73
2022/03/30 06:05:30;;;;;;;10.13;4.05;;;;;;;;;;5111803;27;20039;-73
2022/03/30 06:07:59;;;;;;;7.47;4.40;;;;;;;;;;5129495;27;20043;-73
2022/03/30 06:10:28;;;;;;;7.75;3.60;;;;;;;;;;5115195;27;20031;-73
2022/03/30 06:12:55;;;;;;;7.55;3.55;;;;;;;;;;5113606;27;20044;-73
2022/03/30 06:15:21;;;;;;;7.97;4.18;;;;;;;;;;5132023;27;20040;-73
2022/03/30 06:17:48;;;;;;;10.10;3.95;;;;;;;;;;5114737;27;20045;-73
2022/03/30 06:20:15;;;;;;;12.00;3.67;;;;;;;;;;5132280;27;20043;-73
2022/03/30 06:22:41;;;;;;;8.60;3.25;;;;;;;;;;5134945;27;20485;-73
2022/03/30 06:25:09;;;;;;;11.20;4.57;;;;;;;;;;5111324;27;20055;-72
2022/03/30 06:27:36;;;;;;;8.52;3.65;;;;;;;;;;5128562;27;20040;-73
2022/03/30 06:30:04;;;;;;;9.77;4.60;;;;;;;;;;5129355;27;20047;-72
2022/03/30 06:32:30;;;;;;;12.20;4.40;;;;;;;;;;5127303;27;20068;-71
2022/03/30 06:34:56;;;;;;;13.10;4.57;;;;;;;;;;5116555;27;20504;-71
2022/03/30 06:37:22;;;;;;;13.05;5.38;;;;;;;;;;5135104;27;20035;-71
2022/03/30 06:39:49;;;;;;;11.98;4.18;;;;;;;;;;5115891;27;20051;-73
2022/03/30 06:42:16;;;;;;;6.70;4.43;;;;;;;;;;5118928;27;20086;-73
2022/03/30 06:44:43;;;;;;;9.82;4.68;;;;;;;;;;5114532;27;20036;-71
2022/03/30 06:47:09;;;;;;;12.43;5.00;;;;;;;;;;5129914;27;20043;-71
2022/03/30 06:49:36;;;;;;;8.50;4.47;;;;;;;;;;5115314;27;20509;-77
2022/03/30 06:52:03;;;;;;;7.47;4.45;;;;;;;;;;5131970;27;20096;-72
2022/03/30 06:54:29;;;;;;;9.75;4.18;;;;;;;;;;5117257;27;20031;-76
2022/03/30 06:56:55;;;;;;;7.25;3.15;;;;;;;;;;5131193;27;20043;-72
2022/03/30 06:59:21;;;;;;;10.75;3.53;;;;;;;;;;5114526;27;20039;-73
2022/03/30 07:01:48;;;;;;;9.90;4.20;;;;;;;;;;5117850;27;20066;-72
2022/03/30 07:04:14;;;;;;;7.80;4.45;;;;;;;;;;5134556;27;20040;-73
2022/03/30 07:10:14;;;;;;;8.80;4.13;;;;;;;;;;5119163;27;20039;-73
2022/03/30 07:12:11;;;;;;;9.77;5.35;;;;;;;;;;5134613;27;20055;-73
2022/03/30 07:14:37;;;;;;;9.52;4.18;;;;;;;;;;5119312;27;20143;-72
2022/03/30 07:17:03;;;;;;;5.20;3.10;;;;;;;;;;5121154;27;20872;-72
2022/03/30 07:19:30;;;;;;;14.35;4.10;;;;;;;;;;5136135;27;20058;-72
2022/03/30 07:21:56;;;;;;;11.43;3.63;;;;;;;;;;5137739;27;20039;-73
2022/03/30 07:24:22;;;;;;;5.65;3.20;;;;;;;;;;5116657;27;20048;-72
2022/03/30 07:26:48;;;;;;;14.52;5.35;;;;;;;;;;5131556;27;20126;-72
2022/03/30 07:29:14;;;;;;;25.70;12.65;;;;;;;;;;5132778;27;20043;-73
2022/03/30 07:31:40;;;;;;;19.25;10.27;;;;;;;;;;5133900;27;20039;-73
2022/03/30 07:34:06;;;;;;;7.90;4.40;;;;;;;;;;5132957;27;20095;-73
2022/03/30 07:36:32;;;;;;;10.10;3.97;;;;;;;;;;5132641;27;20039;-73
2022/03/30 07:38:58;;;;;;;10.65;5.18;;;;;;;;;;5135218;27;20075;-72
2022/03/30 07:41:24;;;;;;;7.85;3.47;;;;;;;;;;5134794;27;20054;-72
2022/03/30 07:43:51;;;;;;;6.70;3.03;;;;;;;;;;5139874;27;20666;-73
2022/03/30 07:46:17;;;;;;;9.90;3.22;;;;;;;;;;5135869;27;20046;-73
2022/03/30 07:48:43;;;;;;;5.30;2.80;;;;;;;;;;5134080;27;20066;-73
2022/03/30 07:51:09;;;;;;;9.35;3.38;;;;;;;;;;5137135;27;20048;-73
2022/03/30 07:53:35;;;;;;;7.55;3.50;;;;;;;;;;5136215;27;20051;-72
2022/03/30 07:56:01;;;;;;;4.97;2.80;;;;;;;;;;5118346;27;20092;-73
2022/03/30 07:58:27;;;;;;;6.63;3.38;;;;;;;;;;5118031;27;20040;-73
2022/03/30 08:00:54;;;;;;;6.80;3.10;;;;;;;;;;5136007;27;20066;-72
2022/03/30 08:03:20;;;;;;;8.25;4.35;;;;;;;;;;5137988;27;20041;-73
2022/03/30 08:05:46;;;;;;;8.90;3.05;;;;;;;;;;5118641;27;20042;-73
2022/03/30 08:08:13;;;;;;;11.45;3.42;;;;;;;;;;5136625;27;20052;-73
2022/03/30 08:10:39;;;;;;;7.15;4.75;;;;;;;;;;5121665;27;20043;-72
2022/03/30 08:13:06;;;;;;;10.38;3.92;;;;;;;;;;5134927;27;20100;-72
2022/03/30 08:15:32;;;;;;;11.30;3.97;;;;;;;;;;5135721;27;20513;-73
2022/03/30 08:17:58;;;;;;;9.45;3.22;;;;;;;;;;5135054;27;20070;-73
2022/03/30 08:23:09;;;;;;;8.05;2.92;;;;;;;;;;5134888;27;20043;-73
2022/03/30 08:25:36;;;;;;;11.52;5.28;;;;;;;;;;5134991;27;20500;-73
2022/03/30 08:28:02;;;;;;;9.00;4.57;;;;;;;;;;5137383;27;20118;-73
2022/03/30 08:30:28;;;;;;;10.85;3.45;;;;;;;;;;5115555;27;20051;-72
2022/03/30 08:32:54;;;;;;;10.98;3.25;;;;;;;;;;5121949;27;20045;-72
2022/03/30 08:35:22;;;;;;;8.23;4.43;;;;;;;;;;5116248;27;20169;-73
2022/03/30 08:37:49;;;;;;;12.45;4.15;;;;;;;;;;5118003;27;20173;-72
2022/03/30 08:40:15;;;;;;;7.65;3.35;;;;;;;;;;5133731;27;20047;-72
2022/03/30 08:42:41;;;;;;;8.75;3.70;;;;;;;;;;5136304;27;20046;-70
2022/03/30 08:45:09;;;;;;;11.27;4.10;;;;;;;;;;5130478;27;20043;-72
2022/03/30 08:47:35;;;;;;;9.57;3.70;;;;;;;;;;5131925;27;20362;-72
2022/03/30 08:50:02;;;;;;;12.85;4.35;;;;;;;;;;5136689;27;20082;-72
2022/03/30 08:52:28;;;;;;;15.48;5.68;;;;;;;;;;5131914;27;20967;-72
2022/03/30 08:54:54;;;;;;;11.38;5.25;;;;;;;;;;5114365;27;20476;-72
2022/03/30 08:57:20;;;;;;;11.55;4.38;;;;;;;;;;5131353;27;20200;-72
2022/03/30 09:00:13;;;;;;;9.05;4.32;;;;;;;;;;5115690;27;20048;-72
2022/03/30 09:02:41;;;;;;;12.32;4.07;;;;;;;;;;5129740;27;20126;-72
2022/03/30 09:05:19;;;;;;;9.10;4.15;;;;;;;;;;5116858;27;20130;-73
2022/03/30 09:07:48;;;;;;;17.30;5.18;;;;;;;;;;5135509;27;20046;-72
2022/03/30 09:10:21;;;;;;;6.78;3.95;;;;;;;;;;5135087;27;20039;-72
2022/03/30 09:12:48;;;;;;;13.25;4.30;;;;;;;;;;5131950;27;20044;-72
2022/03/30 09:15:15;;;;;;;13.40;4.45;;;;;;;;;;5134432;27;20073;-72
2022/03/30 09:17:41;;;;;;;14.52;5.15;;;;;;;;;;5117286;27;20036;-72
2022/03/30 09:20:13;;;;;;;11.38;4.30;;;;;;;;;;5117844;27;20554;-72
2022/03/30 09:22:46;;;;;;;14.38;4.95;;;;;;;;;;5118580;27;20042;-72
2022/03/30 09:25:13;;;;;;;11.95;5.03;;;;;;;;;;5132067;27;20323;-73
2022/03/30 09:27:41;;;;;;;12.77;4.32;;;;;;;;;;5138065;27;20047;-73
2022/03/30 09:30:08;;;;;;;14.85;4.70;;;;;;;;;;5135241;27;20489;-73
2022/03/30 09:32:35;;;;;;;8.80;4.95;;;;;;;;;;5115757;27;20130;-73
2022/03/30 09:35:01;;;;;;;11.27;4.28;;;;;;;;;;5135381;27;20035;-73
2022/03/30 09:37:27;;;;;;;6.75;3.60;;;;;;;;;;5133549;27;20080;-73
2022/03/30 09:39:54;;;;;;;10.80;4.47;;;;;;;;;;5116336;27;20039;-73
2022/03/30 09:42:20;;;;;;;11.18;4.25;;;;;;;;;;5134696;27;20040;-73
2022/03/30 09:44:49;;;;;;;12.32;5.25;;;;;;;;;;5134188;27;20497;-73
2022/03/30 09:47:16;;;;;;;11.02;5.00;;;;;;;;;;5135081;27;20039;-73
2022/03/30 09:49:49;;;;;;;14.75;4.68;;;;;;;;;;5135973;27;20043;-73
2022/03/30 09:52:23;;;;;;;12.82;5.88;;;;;;;;;;5133563;27;20104;-73
2022/03/30 09:54:50;;;;;;;13.57;5.57;;;;;;;;;;5133716;27;20044;-73
2022/03/30 09:57:29;;;;;;;19.48;7.05;;;;;;;;;;5133722;27;20054;-73
2022/03/30 09:59:58;;;;;;;12.10;5.88;;;;;;;;;;5111211;27;20651;-73
2022/03/30 10:02:25;;;;;;;12.13;5.75;;;;;;;;;;5117342;27;20039;-73
2022/03/30 10:04:51;;;;;;;20.65;5.85;;;;;;;;;;5131981;27;20088;-73
2022/03/30 10:07:17;;;;;;;15.18;6.95;;;;;;;;;;5133670;27;20043;-73
2022/03/30 10:09:43;;;;;;;13.55;6.15;;;;;;;;;;5117293;27;20039;-73
2022/03/30 10:12:12;;;;;;;14.18;6.25;;;;;;;;;;5119442;27;20500;-73
2022/03/30 10:14:39;;;;;;;14.77;6.47;;;;;;;;;;5137571;27;20087;-73
2022/03/30 10:17:05;;;;;;;18.67;8.07;;;;;;;;;;5136630;27;20047;-73
2022/03/30 10:19:32;;;;;;;14.00;6.60;;;;;;;;;;5135068;27;20055;-73
2022/03/30 10:22:01;;;;;;;11.20;6.15;;;;;;;;;;5137239;27;20062;-73
2022/03/30 10:24:27;;;;;;;17.50;8.20;;;;;;;;;;5134977;27;20572;-73
2022/03/30 10:26:58;;;;;;;18.48;6.93;;;;;;;;;;5134389;27;20047;-72
2022/03/30 10:29:26;;;;;;;12.68;7.22;;;;;;;;;;5138845;27;20039;-73
2022/03/30 10:32:24;;;;;;;11.00;6.55;;;;;;;;;;5136051;27;20096;-73
2022/03/30 10:34:56;;;;;;;16.33;7.30;;;;;;;;;;5079138;27;20051;-73
2022/03/30 10:37:22;;;;;;;;;;;;;;;;;;5122860;27;20590;-72
2022/03/30 10:40:04;;;;;;;11.07;6.57;;;;;;;;;;5134716;27;19924;-73
2022/03/30 10:42:54;;;;;;;14.90;7.63;;;;;;;;;;5117333;27;20046;-73
2022/03/30 10:45:30;;;;;;;22.90;7.72;;;;;;;;;;5138132;27;20050;-73
2022/03/30 10:48:28;;;;;;;16.27;6.95;;;;;;;;;;5139819;27;20039;-73
2022/03/30 10:50:59;;;;;;;15.15;7.38;;;;;;;;;;5086205;27;20101;-73
2022/03/30 10:53:31;;;;;;;13.13;5.93;;;;;;;;;;5137029;27;20086;-73
2022/03/30 10:56:09;;;;;;;15.38;6.47;;;;;;;;;;5135873;27;20042;-73
2022/03/30 10:58:36;;;;;;;16.63;7.30;;;;;;;;;;5138319;27;20039;-73
2022/03/30 11:01:15;;;;;;;13.85;7.30;;;;;;;;;;5135003;27;20071;-73
2022/03/30 11:04:02;;;;;;;21.88;8.02;;;;;;;;;;5136837;27;20628;-73
2022/03/30 11:06:29;;;;;;;18.92;7.03;;;;;;;;;;5133842;27;20051;-73
2022/03/30 11:08:56;;;;;;;15.27;6.40;;;;;;;;;;5119637;27;20076;-73
2022/03/30 11:11:23;;;;;;;13.38;5.32;;;;;;;;;;5137548;27;20039;-73
2022/03/30 11:14:05;;;;;;;14.25;5.97;;;;;;;;;;5133097;27;20047;-73
2022/03/30 11:16:51;;;;;;;19.25;6.30;;;;;;;;;;5134079;27;20080;-73
2022/03/30 11:19:17;;;;;;;9.43;6.10;;;;;;;;;;5131655;27;20134;-73
2022/03/30 11:22:12;;;;;;;14.15;5.63;;;;;;;;;;5120736;27;20146;-73
2022/03/30 11:24:42;;;;;;;13.38;5.50;;;;;;;;;;5110099;27;20075;-73
2022/03/30 11:27:08;;;;;;;17.77;6.60;;;;;;;;;;5120009;27;20126;-74
2022/03/30 11:29:48;;;;;;;13.10;6.30;;;;;;;;;;5134180;27;20042;-73
2022/03/30 11:32:31;;;;;;;11.82;5.97;;;;;;;;;;5119083;27;20121;-73
2022/03/30 11:35:01;;;;;;;15.63;7.28;;;;;;;;;;5135721;27;20143;-74
2022/03/30 11:37:32;;;;;;;16.42;7.82;;;;;;;;;;5135918;27;20050;-74
2022/03/30 11:40:17;;;;;;;14.25;7.05;;;;;;;;;;5133070;27;20398;-74
2022/03/30 11:42:45;;;;;;;12.35;6.60;;;;;;;;;;5137676;27;20072;-73
2022/03/30 11:45:21;;;;;;;16.90;6.93;;;;;;;;;;5121392;27;20403;-74
2022/03/30 11:47:50;;;;;;;14.30;6.72;;;;;;;;;;5133784;27;20093;-74
2022/03/30 11:50:36;;;;;;;14.40;6.43;;;;;;;;;;5134835;27;20509;-74
2022/03/30 11:53:08;;;;;;;17.02;6.55;;;;;;;;;;5121399;27;20086;-74
2022/03/30 11:55:53;;;;;;;16.55;7.03;;;;;;;;;;5118433;27;20039;-74
2022/03/30 11:58:34;;;;;;;18.90;10.18;;;;;;;;;;5117968;27;20043;-73
2022/03/30 12:01:02;;;;;;;15.52;6.45;;;;;;;;;;5135421;27;20031;-73
2022/03/30 12:03:28;;;;;;;14.23;7.25;;;;;;;;;;5115369;27;20528;-73
2022/03/30 12:05:55;;;;;;;14.60;6.40;;;;;;;;;;5115103;27;20047;-74
2022/03/30 12:08:22;;;;;;;14.63;6.82;;;;;;;;;;5138714;27;20046;-74
2022/03/30 12:10:49;;;;;;;14.30;6.80;;;;;;;;;;5132261;27;20039;-74
2022/03/30 12:13:23;;;;;;;18.92;7.15;;;;;;;;;;5121104;27;20169;-74
2022/03/30 12:15:59;;;;;;;14.52;6.85;;;;;;;;;;5116218;27;20035;-74
2022/03/30 12:18:25;;;;;;;14.35;7.70;;;;;;;;;;5133085;27;20043;-73
2022/03/30 12:20:51;;;;;;;23.05;8.23;;;;;;;;;;5134560;27;20031;-73
2022/03/30 12:23:17;;;;;;;14.30;7.35;;;;;;;;;;5114387;27;20107;-74
2022/03/30 12:25:44;;;;;;;19.17;7.57;;;;;;;;;;5136693;27;20035;-74
2022/03/30 12:28:10;;;;;;;12.75;6.38;;;;;;;;;;5135162;27;20047;-74
2022/03/30 12:30:38;;;;;;;15.32;7.90;;;;;;;;;;5128389;27;20049;-74
2022/03/30 12:33:04;;;;;;;14.80;8.25;;;;;;;;;;5115543;27;20050;-73
2022/03/30 12:35:35;;;;;;;14.05;6.80;;;;;;;;;;5116897;27;20088;-73
2022/03/30 12:38:09;;;;;;;18.55;7.47;;;;;;;;;;5116046;27;20881;-74
2022/03/30 12:40:36;;;;;;;18.45;7.78;;;;;;;;;;5123929;27;20039;-74
2022/03/30 12:43:03;;;;;;;14.98;7.60;;;;;;;;;;5115264;27;20047;-73
2022/03/30 12:45:29;;;;;;;19.45;6.65;;;;;;;;;;5133707;27;20047;-73
2022/03/30 12:47:58;;;;;;;13.05;6.75;;;;;;;;;;5131465;27;20035;-74
2022/03/30 12:50:35;;;;;;;14.85;6.10;;;;;;;;;;5120404;27;20043;-73
2022/03/30 12:53:15;;;;;;;10.13;5.35;;;;;;;;;;5138065;27;20058;-73
2022/03/30 12:55:47;;;;;;;19.65;6.15;;;;;;;;;;5132538;27;20062;-73
2022/03/30 12:58:19;;;;;;;15.48;6.00;;;;;;;;;;5134843;27;20047;-74
2022/03/30 13:00:49;;;;;;;12.85;5.35;;;;;;;;;;5129871;27;20532;-74
2022/03/30 13:03:16;;;;;;;9.55;4.65;;;;;;;;;;5132007;27;20045;-73
2022/03/30 13:05:47;;;;;;;18.08;5.40;;;;;;;;;;5133459;27;20581;-74
2022/03/30 13:08:17;;;;;;;12.27;4.00;;;;;;;;;;5110351;27;20044;-73
2022/03/30 13:10:47;;;;;;;7.57;2.97;;;;;;;;;;5128918;27;20066;-74
2022/03/30 13:13:15;;;;;;;8.45;3.28;;;;;;;;;;5129625;27;20106;-73
2022/03/30 13:15:42;;;;;;;8.82;3.38;;;;;;;;;;5132494;27;20049;-73
2022/03/30 13:18:10;;;;;;;12.48;4.28;;;;;;;;;;5109878;27;20043;-74
2022/03/30 13:20:37;;;;;;;6.75;3.15;;;;;;;;;;5132043;27;20035;-74
2022/03/30 13:23:05;;;;;;;8.70;3.28;;;;;;;;;;5134595;27;20503;-73
2022/03/30 13:25:32;;;;;;;8.90;4.20;;;;;;;;;;5129149;27;20039;-74
2022/03/30 13:27:59;;;;;;;8.75;3.30;;;;;;;;;;5132065;27;20036;-74
2022/03/30 13:30:26;;;;;;;6.80;3.67;;;;;;;;;;5129594;27;20422;-74
2022/03/30 13:32:53;;;;;;;9.98;4.47;;;;;;;;;;5131734;27;20122;-74
2022/03/30 13:35:19;;;;;;;9.55;4.15;;;;;;;;;;5134123;27;20075;-74
2022/03/30 13:37:45;;;;;;;8.25;4.35;;;;;;;;;;5131372;27;20952;-74
2022/03/30 13:40:11;;;;;;;12.65;4.80;;;;;;;;;;5126900;27;20043;-74
2022/03/30 13:42:37;;;;;;;11.05;5.90;;;;;;;;;;5131540;27;20406;-74
2022/03/30 13:45:04;;;;;;;8.77;5.10;;;;;;;;;;5133779;27;20036;-74
2022/03/30 13:47:30;;;;;;;11.10;5.70;;;;;;;;;;5117445;27;20039;-73
2022/03/30 13:49:56;;;;;;;14.85;7.50;;;;;;;;;;5138040;27;20039;-74
2022/03/30 13:52:24;;;;;;;14.40;7.05;;;;;;;;;;5133214;27;20059;-74
2022/03/30 13:54:51;;;;;;;10.75;6.53;;;;;;;;;;5117158;27;20043;-74
2022/03/30 13:57:17;;;;;;;18.25;7.90;;;;;;;;;;5128957;27;20521;-74
2022/03/30 13:59:44;;;;;;;15.95;9.20;;;;;;;;;;5128119;27;20062;-74
2022/03/30 14:02:10;;;;;;;14.27;7.55;;;;;;;;;;5136136;27;20921;-74
2022/03/30 14:04:37;;;;;;;18.30;7.25;;;;;;;;;;5133078;27;20050;-73
2022/03/30 14:07:07;;;;;;;12.68;6.72;;;;;;;;;;5134874;27;20042;-74
2022/03/30 14:09:34;;;;;;;14.48;6.47;;;;;;;;;;5114639;27;20054;-74
2022/03/30 14:12:00;;;;;;;13.00;7.25;;;;;;;;;;5134928;27;20039;-74
2022/03/30 14:14:28;;;;;;;12.73;7.22;;;;;;;;;;5133467;27;20043;-74
2022/03/30 14:16:54;;;;;;;16.88;7.03;;;;;;;;;;5121378;27;20031;-74
2022/03/30 14:19:21;;;;;;;17.48;8.32;;;;;;;;;;5134997;27;20111;-74
2022/03/30 14:21:48;;;;;;;18.95;7.47;;;;;;;;;;5132876;27;20038;-74
2022/03/30 14:24:15;;;;;;;11.85;6.05;;;;;;;;;;5134328;27;20151;-74
2022/03/30 14:26:41;;;;;;;15.23;6.38;;;;;;;;;;5113817;27;20146;-74
2022/03/30 14:29:07;;;;;;;17.70;6.60;;;;;;;;;;5136559;27;20078;-74
2022/03/30 14:31:34;;;;;;;13.18;5.85;;;;;;;;;;5129506;27;20043;-74
2022/03/30 14:34:01;;;;;;;13.80;7.78;;;;;;;;;;5115276;27;20039;-74
2022/03/30 14:36:27;;;;;;;10.75;5.80;;;;;;;;;;5132029;27;20035;-73
2022/03/30 14:38:53;;;;;;;13.95;6.00;;;;;;;;;;5134304;27;20043;-74
2022/03/30 14:41:20;;;;;;;11.13;5.97;;;;;;;;;;5129634;27;20046;-74
2022/03/30 14:43:46;;;;;;;15.10;6.70;;;;;;;;;;5111636;27;20039;-73
2022/03/30 14:46:12;;;;;;;14.70;7.68;;;;;;;;;;5135213;27;20529;-78
2022/03/30 14:48:39;;;;;;;13.57;7.25;;;;;;;;;;5112005;27;20527;-73